sensor_id;sensor_type;location;lat;lon;timestamp;P1;durP1;ratioP1;P2;durP2;ratioP2
50633;SDS011;36596;55.798;38.462;2022-08-14T00:02:03;10.98;;;7.90;;
50633;SDS011;36596;55.798;38.462;2022-08-14T00:04:30;10.10;;;7.53;;
50633;SDS011;36596;55.798;38.462;2022-08-14T00:06:57;11.77;;;7.85;;
50633;SDS011;36596;55.798;38.462;2022-08-14T00:09:23;12.63;;;7.72;;
50633;SDS011;36596;55.798;38.462;2022-08-14T00:11:49;11.50;;;7.07;;
50633;SDS011;36596;55.798;38.462;2022-08-14T00:14:15;11.80;;;7.75;;
50633;SDS011;36596;55.798;38.462;2022-08-14T00:16:41;10.52;;;7.53;;
50633;SDS011;36596;55.798;38.462;2022-08-14T00:19:08;13.70;;;7.90;;
50633;SDS011;36596;55.798;38.462;2022-08-14T00:21:34;13.27;;;8.35;;
50633;SDS011;36596;55.798;38.462;2022-08-14T00:24:00;10.25;;;8.40;;
50633;SDS011;36596;55.798;38.462;2022-08-14T00:26:26;14.82;;;8.52;;
50633;SDS011;36596;55.798;38.462;2022-08-14T00:28:52;12.88;;;8.15;;
50633;SDS011;36596;55.798;38.462;2022-08-14T00:31:18;13.10;;;7.57;;
50633;SDS011;36596;55.798;38.462;2022-08-14T00:33:44;12.05;;;8.05;;
50633;SDS011;36596;55.798;38.462;2022-08-14T00:36:10;13.73;;;7.30;;
50633;SDS011;36596;55.798;38.462;2022-08-14T00:38:36;18.40;;;7.40;;
50633;SDS011;36596;55.798;38.462;2022-08-14T00:41:03;12.55;;;8.07;;
50633;SDS011;36596;55.798;38.462;2022-08-14T00:43:32;13.30;;;7.15;;
50633;SDS011;36596;55.798;38.462;2022-08-14T00:46:05;8.57;;;6.40;;
50633;SDS011;36596;55.798;38.462;2022-08-14T00:48:33;11.45;;;7.45;;
50633;SDS011;36596;55.798;38.462;2022-08-14T00:51:00;9.40;;;7.38;;
50633;SDS011;36596;55.798;38.462;2022-08-14T00:53:26;12.20;;;7.03;;
50633;SDS011;36596;55.798;38.462;2022-08-14T00:55:52;11.60;;;8.07;;
50633;SDS011;36596;55.798;38.462;2022-08-14T00:58:21;9.88;;;7.43;;
50633;SDS011;36596;55.798;38.462;2022-08-14T01:00:57;8.80;;;6.75;;
50633;SDS011;36596;55.798;38.462;2022-08-14T01:03:25;13.63;;;7.00;;
50633;SDS011;36596;55.798;38.462;2022-08-14T01:05:54;14.77;;;6.97;;
50633;SDS011;36596;55.798;38.462;2022-08-14T01:08:21;10.43;;;6.95;;
50633;SDS011;36596;55.798;38.462;2022-08-14T01:10:49;10.95;;;6.85;;
50633;SDS011;36596;55.798;38.462;2022-08-14T01:13:17;8.63;;;6.38;;
50633;SDS011;36596;55.798;38.462;2022-08-14T01:15:47;10.15;;;6.68;;
50633;SDS011;36596;55.798;38.462;2022-08-14T01:18:15;9.82;;;5.57;;
50633;SDS011;36596;55.798;38.462;2022-08-14T01:21:01;9.70;;;6.45;;
50633;SDS011;36596;55.798;38.462;2022-08-14T01:23:31;10.40;;;6.75;;
50633;SDS011;36596;55.798;38.462;2022-08-14T01:25:59;10.50;;;6.28;;
50633;SDS011;36596;55.798;38.462;2022-08-14T01:28:25;11.05;;;6.28;;
50633;SDS011;36596;55.798;38.462;2022-08-14T01:30:52;11.05;;;5.88;;
50633;SDS011;36596;55.798;38.462;2022-08-14T01:33:25;9.35;;;5.85;;
50633;SDS011;36596;55.798;38.462;2022-08-14T01:35:56;10.05;;;5.90;;
50633;SDS011;36596;55.798;38.462;2022-08-14T01:40:52;8.57;;;5.40;;
50633;SDS011;36596;55.798;38.462;2022-08-14T01:43:18;10.23;;;6.22;;
50633;SDS011;36596;55.798;38.462;2022-08-14T01:45:44;8.43;;;5.32;;
50633;SDS011;36596;55.798;38.462;2022-08-14T01:48:15;8.13;;;5.68;;
50633;SDS011;36596;55.798;38.462;2022-08-14T01:50:41;9.70;;;6.05;;
50633;SDS011;36596;55.798;38.462;2022-08-14T01:53:07;8.63;;;5.87;;
50633;SDS011;36596;55.798;38.462;2022-08-14T01:55:35;13.27;;;6.07;;
50633;SDS011;36596;55.798;38.462;2022-08-14T01:58:03;8.35;;;6.07;;
50633;SDS011;36596;55.798;38.462;2022-08-14T02:00:30;8.77;;;6.30;;
50633;SDS011;36596;55.798;38.462;2022-08-14T02:02:55;11.53;;;6.33;;
50633;SDS011;36596;55.798;38.462;2022-08-14T02:05:25;10.65;;;6.32;;
50633;SDS011;36596;55.798;38.462;2022-08-14T02:07:55;14.50;;;7.20;;
50633;SDS011;36596;55.798;38.462;2022-08-14T02:10:21;8.98;;;6.22;;
50633;SDS011;36596;55.798;38.462;2022-08-14T02:12:55;11.05;;;6.57;;
50633;SDS011;36596;55.798;38.462;2022-08-14T02:15:21;11.18;;;6.10;;
50633;SDS011;36596;55.798;38.462;2022-08-14T02:17:49;9.33;;;6.60;;
50633;SDS011;36596;55.798;38.462;2022-08-14T02:20:15;12.33;;;6.00;;
50633;SDS011;36596;55.798;38.462;2022-08-14T02:22:42;10.60;;;6.30;;
50633;SDS011;36596;55.798;38.462;2022-08-14T02:25:09;8.80;;;5.63;;
50633;SDS011;36596;55.798;38.462;2022-08-14T02:27:36;12.00;;;6.47;;
50633;SDS011;36596;55.798;38.462;2022-08-14T02:30:06;11.47;;;6.10;;
50633;SDS011;36596;55.798;38.462;2022-08-14T02:32:32;10.87;;;5.57;;
50633;SDS011;36596;55.798;38.462;2022-08-14T02:35:00;12.55;;;6.28;;
50633;SDS011;36596;55.798;38.462;2022-08-14T02:37:28;7.23;;;5.40;;
50633;SDS011;36596;55.798;38.462;2022-08-14T02:39:54;11.23;;;6.10;;
50633;SDS011;36596;55.798;38.462;2022-08-14T02:42:22;7.47;;;5.68;;
50633;SDS011;36596;55.798;38.462;2022-08-14T02:44:49;9.30;;;5.97;;
50633;SDS011;36596;55.798;38.462;2022-08-14T02:47:21;10.00;;;5.43;;
50633;SDS011;36596;55.798;38.462;2022-08-14T02:49:48;7.45;;;5.32;;
50633;SDS011;36596;55.798;38.462;2022-08-14T02:52:17;8.52;;;5.63;;
50633;SDS011;36596;55.798;38.462;2022-08-14T02:54:44;8.10;;;5.40;;
50633;SDS011;36596;55.798;38.462;2022-08-14T02:57:11;12.05;;;6.18;;
50633;SDS011;36596;55.798;38.462;2022-08-14T02:59:37;11.50;;;6.00;;
50633;SDS011;36596;55.798;38.462;2022-08-14T03:02:05;6.50;;;5.32;;
50633;SDS011;36596;55.798;38.462;2022-08-14T03:04:32;13.38;;;5.95;;
50633;SDS011;36596;55.798;38.462;2022-08-14T03:06:58;13.45;;;6.68;;
50633;SDS011;36596;55.798;38.462;2022-08-14T03:09:25;10.55;;;5.93;;
50633;SDS011;36596;55.798;38.462;2022-08-14T03:11:51;9.63;;;5.90;;
50633;SDS011;36596;55.798;38.462;2022-08-14T03:14:20;9.45;;;6.38;;
50633;SDS011;36596;55.798;38.462;2022-08-14T03:16:49;11.43;;;6.05;;
50633;SDS011;36596;55.798;38.462;2022-08-14T03:19:15;10.45;;;5.93;;
50633;SDS011;36596;55.798;38.462;2022-08-14T03:21:44;7.97;;;5.28;;
50633;SDS011;36596;55.798;38.462;2022-08-14T03:24:10;8.43;;;5.30;;
50633;SDS011;36596;55.798;38.462;2022-08-14T03:26:37;9.32;;;5.30;;
50633;SDS011;36596;55.798;38.462;2022-08-14T03:29:08;9.88;;;5.57;;
50633;SDS011;36596;55.798;38.462;2022-08-14T03:31:39;9.18;;;5.43;;
50633;SDS011;36596;55.798;38.462;2022-08-14T03:34:06;6.53;;;3.87;;
50633;SDS011;36596;55.798;38.462;2022-08-14T03:36:35;9.10;;;5.45;;
50633;SDS011;36596;55.798;38.462;2022-08-14T03:39:04;8.65;;;5.95;;
50633;SDS011;36596;55.798;38.462;2022-08-14T03:41:31;9.38;;;5.00;;
50633;SDS011;36596;55.798;38.462;2022-08-14T03:44:00;7.97;;;4.82;;
50633;SDS011;36596;55.798;38.462;2022-08-14T03:46:29;9.38;;;4.95;;
50633;SDS011;36596;55.798;38.462;2022-08-14T03:48:56;6.65;;;4.13;;
50633;SDS011;36596;55.798;38.462;2022-08-14T03:51:25;9.32;;;5.18;;
50633;SDS011;36596;55.798;38.462;2022-08-14T03:53:54;9.52;;;5.00;;
50633;SDS011;36596;55.798;38.462;2022-08-14T03:56:22;10.93;;;4.82;;
50633;SDS011;36596;55.798;38.462;2022-08-14T03:58:51;7.63;;;4.95;;
50633;SDS011;36596;55.798;38.462;2022-08-14T04:01:21;6.65;;;4.43;;
50633;SDS011;36596;55.798;38.462;2022-08-14T04:03:51;7.95;;;4.28;;
50633;SDS011;36596;55.798;38.462;2022-08-14T04:06:19;10.82;;;4.22;;
50633;SDS011;36596;55.798;38.462;2022-08-14T04:08:47;8.25;;;4.25;;
50633;SDS011;36596;55.798;38.462;2022-08-14T04:11:16;9.15;;;4.38;;
50633;SDS011;36596;55.798;38.462;2022-08-14T04:13:43;9.05;;;4.43;;
50633;SDS011;36596;55.798;38.462;2022-08-14T04:16:14;12.13;;;5.35;;
50633;SDS011;36596;55.798;38.462;2022-08-14T04:18:49;9.38;;;4.95;;
50633;SDS011;36596;55.798;38.462;2022-08-14T04:21:30;9.75;;;5.13;;
50633;SDS011;36596;55.798;38.462;2022-08-14T04:23:58;7.15;;;4.60;;
50633;SDS011;36596;55.798;38.462;2022-08-14T04:26:26;9.65;;;4.70;;
50633;SDS011;36596;55.798;38.462;2022-08-14T04:28:54;7.35;;;4.78;;
50633;SDS011;36596;55.798;38.462;2022-08-14T04:31:22;6.88;;;4.68;;
50633;SDS011;36596;55.798;38.462;2022-08-14T04:33:49;6.83;;;4.43;;
50633;SDS011;36596;55.798;38.462;2022-08-14T04:36:17;10.27;;;4.50;;
50633;SDS011;36596;55.798;38.462;2022-08-14T04:38:46;10.13;;;4.90;;
50633;SDS011;36596;55.798;38.462;2022-08-14T04:41:33;8.23;;;4.35;;
50633;SDS011;36596;55.798;38.462;2022-08-14T04:44:18;6.55;;;3.85;;
50633;SDS011;36596;55.798;38.462;2022-08-14T04:46:44;7.05;;;4.22;;
50633;SDS011;36596;55.798;38.462;2022-08-14T04:49:29;8.00;;;3.72;;
50633;SDS011;36596;55.798;38.462;2022-08-14T04:51:57;7.07;;;3.92;;
50633;SDS011;36596;55.798;38.462;2022-08-14T04:54:30;6.80;;;4.22;;
50633;SDS011;36596;55.798;38.462;2022-08-14T04:56:56;8.13;;;3.95;;
50633;SDS011;36596;55.798;38.462;2022-08-14T04:59:25;8.07;;;3.90;;
50633;SDS011;36596;55.798;38.462;2022-08-14T05:01:51;8.50;;;3.75;;
50633;SDS011;36596;55.798;38.462;2022-08-14T05:04:19;9.07;;;4.00;;
50633;SDS011;36596;55.798;38.462;2022-08-14T05:06:52;6.03;;;3.58;;
50633;SDS011;36596;55.798;38.462;2022-08-14T05:09:18;7.53;;;5.20;;
50633;SDS011;36596;55.798;38.462;2022-08-14T05:11:44;7.07;;;3.88;;
50633;SDS011;36596;55.798;38.462;2022-08-14T05:14:11;7.55;;;3.22;;
50633;SDS011;36596;55.798;38.462;2022-08-14T05:16:39;4.97;;;2.90;;
50633;SDS011;36596;55.798;38.462;2022-08-14T05:19:05;5.55;;;3.03;;
50633;SDS011;36596;55.798;38.462;2022-08-14T05:21:33;7.07;;;3.10;;
50633;SDS011;36596;55.798;38.462;2022-08-14T05:23:59;7.43;;;3.55;;
50633;SDS011;36596;55.798;38.462;2022-08-14T05:26:25;4.95;;;3.40;;
50633;SDS011;36596;55.798;38.462;2022-08-14T05:28:50;6.38;;;3.33;;
50633;SDS011;36596;55.798;38.462;2022-08-14T05:31:17;4.88;;;2.95;;
50633;SDS011;36596;55.798;38.462;2022-08-14T05:33:44;5.10;;;3.47;;
50633;SDS011;36596;55.798;38.462;2022-08-14T05:36:11;6.72;;;3.25;;
50633;SDS011;36596;55.798;38.462;2022-08-14T05:38:39;5.65;;;3.08;;
50633;SDS011;36596;55.798;38.462;2022-08-14T05:41:11;6.78;;;3.30;;
50633;SDS011;36596;55.798;38.462;2022-08-14T05:43:40;5.70;;;3.80;;
50633;SDS011;36596;55.798;38.462;2022-08-14T05:46:11;7.82;;;3.65;;
50633;SDS011;36596;55.798;38.462;2022-08-14T05:48:38;5.57;;;3.55;;
50633;SDS011;36596;55.798;38.462;2022-08-14T05:51:04;6.22;;;3.22;;
50633;SDS011;36596;55.798;38.462;2022-08-14T05:53:32;7.60;;;4.75;;
50633;SDS011;36596;55.798;38.462;2022-08-14T05:55:58;8.98;;;4.00;;
50633;SDS011;36596;55.798;38.462;2022-08-14T05:58:26;7.53;;;3.15;;
50633;SDS011;36596;55.798;38.462;2022-08-14T06:00:54;7.47;;;3.08;;
50633;SDS011;36596;55.798;38.462;2022-08-14T06:03:21;6.05;;;2.75;;
50633;SDS011;36596;55.798;38.462;2022-08-14T06:05:53;28.55;;;25.05;;
50633;SDS011;36596;55.798;38.462;2022-08-14T06:08:25;6.07;;;2.97;;
50633;SDS011;36596;55.798;38.462;2022-08-14T06:10:54;7.25;;;3.45;;
50633;SDS011;36596;55.798;38.462;2022-08-14T06:13:29;6.13;;;3.10;;
50633;SDS011;36596;55.798;38.462;2022-08-14T06:15:59;8.07;;;3.00;;
50633;SDS011;36596;55.798;38.462;2022-08-14T06:18:24;5.15;;;3.58;;
50633;SDS011;36596;55.798;38.462;2022-08-14T06:20:54;7.75;;;4.80;;
50633;SDS011;36596;55.798;38.462;2022-08-14T06:23:20;6.97;;;3.92;;
50633;SDS011;36596;55.798;38.462;2022-08-14T06:25:46;5.00;;;3.10;;
50633;SDS011;36596;55.798;38.462;2022-08-14T06:28:32;6.70;;;2.95;;
50633;SDS011;36596;55.798;38.462;2022-08-14T06:30:58;7.00;;;3.55;;
50633;SDS011;36596;55.798;38.462;2022-08-14T06:33:24;4.97;;;2.97;;
50633;SDS011;36596;55.798;38.462;2022-08-14T06:35:50;5.35;;;2.95;;
50633;SDS011;36596;55.798;38.462;2022-08-14T06:38:17;4.72;;;2.38;;
50633;SDS011;36596;55.798;38.462;2022-08-14T06:40:47;9.48;;;2.83;;
50633;SDS011;36596;55.798;38.462;2022-08-14T06:43:15;6.85;;;2.60;;
50633;SDS011;36596;55.798;38.462;2022-08-14T06:48:49;4.10;;;2.40;;
50633;SDS011;36596;55.798;38.462;2022-08-14T06:52:02;3.33;;;2.15;;
50633;SDS011;36596;55.798;38.462;2022-08-14T06:54:29;3.55;;;2.58;;
50633;SDS011;36596;55.798;38.462;2022-08-14T06:56:56;8.38;;;2.78;;
50633;SDS011;36596;55.798;38.462;2022-08-14T06:59:22;3.78;;;2.78;;
50633;SDS011;36596;55.798;38.462;2022-08-14T07:01:50;4.65;;;2.92;;
50633;SDS011;36596;55.798;38.462;2022-08-14T07:04:36;5.65;;;2.38;;
50633;SDS011;36596;55.798;38.462;2022-08-14T07:07:33;5.00;;;2.63;;
50633;SDS011;36596;55.798;38.462;2022-08-14T07:10:14;5.80;;;2.83;;
50633;SDS011;36596;55.798;38.462;2022-08-14T07:12:41;6.28;;;2.63;;
50633;SDS011;36596;55.798;38.462;2022-08-14T07:15:11;5.32;;;2.63;;
50633;SDS011;36596;55.798;38.462;2022-08-14T07:17:44;5.38;;;2.65;;
50633;SDS011;36596;55.798;38.462;2022-08-14T07:20:22;5.28;;;2.80;;
50633;SDS011;36596;55.798;38.462;2022-08-14T07:22:50;4.80;;;2.50;;
50633;SDS011;36596;55.798;38.462;2022-08-14T07:25:17;4.53;;;2.05;;
50633;SDS011;36596;55.798;38.462;2022-08-14T07:27:49;4.40;;;2.35;;
50633;SDS011;36596;55.798;38.462;2022-08-14T07:30:41;5.38;;;2.10;;
50633;SDS011;36596;55.798;38.462;2022-08-14T07:33:12;5.50;;;2.28;;
50633;SDS011;36596;55.798;38.462;2022-08-14T07:35:40;4.03;;;2.75;;
50633;SDS011;36596;55.798;38.462;2022-08-14T07:38:15;3.17;;;2.40;;
50633;SDS011;36596;55.798;38.462;2022-08-14T07:40:43;3.83;;;2.10;;
50633;SDS011;36596;55.798;38.462;2022-08-14T07:43:09;4.88;;;2.20;;
50633;SDS011;36596;55.798;38.462;2022-08-14T07:45:37;6.68;;;1.92;;
50633;SDS011;36596;55.798;38.462;2022-08-14T07:48:11;4.22;;;2.08;;
50633;SDS011;36596;55.798;38.462;2022-08-14T07:53:08;2.70;;;1.95;;
50633;SDS011;36596;55.798;38.462;2022-08-14T07:55:38;4.50;;;1.75;;
50633;SDS011;36596;55.798;38.462;2022-08-14T07:58:04;4.78;;;1.70;;
50633;SDS011;36596;55.798;38.462;2022-08-14T08:00:31;5.03;;;2.05;;
50633;SDS011;36596;55.798;38.462;2022-08-14T08:02:59;4.70;;;1.90;;
50633;SDS011;36596;55.798;38.462;2022-08-14T08:05:26;3.97;;;2.10;;
50633;SDS011;36596;55.798;38.462;2022-08-14T08:07:53;3.85;;;1.83;;
50633;SDS011;36596;55.798;38.462;2022-08-14T08:10:28;3.83;;;1.90;;
50633;SDS011;36596;55.798;38.462;2022-08-14T08:15:30;4.97;;;2.17;;
50633;SDS011;36596;55.798;38.462;2022-08-14T08:18:01;4.93;;;2.05;;
50633;SDS011;36596;55.798;38.462;2022-08-14T08:20:32;5.38;;;2.70;;
50633;SDS011;36596;55.798;38.462;2022-08-14T08:23:04;6.72;;;2.30;;
50633;SDS011;36596;55.798;38.462;2022-08-14T08:25:35;4.20;;;2.72;;
50633;SDS011;36596;55.798;38.462;2022-08-14T08:30:59;6.85;;;2.10;;
50633;SDS011;36596;55.798;38.462;2022-08-14T08:33:31;4.00;;;2.22;;
50633;SDS011;36596;55.798;38.462;2022-08-14T08:36:02;4.65;;;2.30;;
50633;SDS011;36596;55.798;38.462;2022-08-14T08:38:32;4.97;;;1.98;;
50633;SDS011;36596;55.798;38.462;2022-08-14T08:40:59;5.10;;;2.22;;
50633;SDS011;36596;55.798;38.462;2022-08-14T08:43:27;5.28;;;2.20;;
50633;SDS011;36596;55.798;38.462;2022-08-14T08:45:57;4.63;;;2.00;;
50633;SDS011;36596;55.798;38.462;2022-08-14T08:48:47;2.92;;;1.90;;
50633;SDS011;36596;55.798;38.462;2022-08-14T08:51:27;3.25;;;1.85;;
50633;SDS011;36596;55.798;38.462;2022-08-14T08:54:08;5.03;;;2.08;;
50633;SDS011;36596;55.798;38.462;2022-08-14T08:56:42;4.70;;;2.00;;
50633;SDS011;36596;55.798;38.462;2022-08-14T08:59:17;5.47;;;1.95;;
50633;SDS011;36596;55.798;38.462;2022-08-14T09:04:42;4.68;;;2.00;;
50633;SDS011;36596;55.798;38.462;2022-08-14T09:07:09;5.70;;;1.90;;
50633;SDS011;36596;55.798;38.462;2022-08-14T09:09:35;4.57;;;1.90;;
50633;SDS011;36596;55.798;38.462;2022-08-14T09:12:16;2.95;;;1.88;;
50633;SDS011;36596;55.798;38.462;2022-08-14T09:14:43;5.05;;;1.67;;
50633;SDS011;36596;55.798;38.462;2022-08-14T09:17:11;4.03;;;1.80;;
50633;SDS011;36596;55.798;38.462;2022-08-14T09:19:37;6.38;;;1.70;;
50633;SDS011;36596;55.798;38.462;2022-08-14T09:22:04;6.82;;;2.30;;
50633;SDS011;36596;55.798;38.462;2022-08-14T09:24:31;3.03;;;1.40;;
50633;SDS011;36596;55.798;38.462;2022-08-14T09:26:57;3.88;;;1.50;;
50633;SDS011;36596;55.798;38.462;2022-08-14T09:29:23;3.38;;;1.20;;
50633;SDS011;36596;55.798;38.462;2022-08-14T09:31:53;2.50;;;1.40;;
50633;SDS011;36596;55.798;38.462;2022-08-14T09:47:20;4.00;;;1.33;;
50633;SDS011;36596;55.798;38.462;2022-08-14T09:50:14;5.28;;;1.65;;
50633;SDS011;36596;55.798;38.462;2022-08-14T09:52:53;2.00;;;1.33;;
50633;SDS011;36596;55.798;38.462;2022-08-14T09:55:25;4.45;;;1.20;;
50633;SDS011;36596;55.798;38.462;2022-08-14T09:58:04;3.95;;;1.25;;
50633;SDS011;36596;55.798;38.462;2022-08-14T10:00:45;3.55;;;1.30;;
50633;SDS011;36596;55.798;38.462;2022-08-14T10:03:37;4.05;;;1.30;;
50633;SDS011;36596;55.798;38.462;2022-08-14T10:06:18;3.72;;;1.40;;
50633;SDS011;36596;55.798;38.462;2022-08-14T10:11:13;3.55;;;1.05;;
50633;SDS011;36596;55.798;38.462;2022-08-14T10:13:46;2.95;;;1.40;;
50633;SDS011;36596;55.798;38.462;2022-08-14T10:16:16;4.13;;;1.45;;
50633;SDS011;36596;55.798;38.462;2022-08-14T10:18:42;3.28;;;1.17;;
50633;SDS011;36596;55.798;38.462;2022-08-14T10:21:09;4.30;;;1.50;;
50633;SDS011;36596;55.798;38.462;2022-08-14T10:23:43;3.72;;;1.30;;
50633;SDS011;36596;55.798;38.462;2022-08-14T10:26:13;2.30;;;1.17;;
50633;SDS011;36596;55.798;38.462;2022-08-14T10:28:46;2.65;;;1.20;;
50633;SDS011;36596;55.798;38.462;2022-08-14T10:31:26;4.97;;;1.20;;
50633;SDS011;36596;55.798;38.462;2022-08-14T10:33:59;3.70;;;1.33;;
50633;SDS011;36596;55.798;38.462;2022-08-14T10:39:22;5.60;;;1.25;;
50633;SDS011;36596;55.798;38.462;2022-08-14T10:41:58;4.10;;;1.50;;
50633;SDS011;36596;55.798;38.462;2022-08-14T10:44:36;1.90;;;1.23;;
50633;SDS011;36596;55.798;38.462;2022-08-14T10:47:05;3.72;;;1.25;;
50633;SDS011;36596;55.798;38.462;2022-08-14T10:49:35;4.13;;;1.35;;
50633;SDS011;36596;55.798;38.462;2022-08-14T10:54:32;3.17;;;1.55;;
50633;SDS011;36596;55.798;38.462;2022-08-14T10:57:13;2.28;;;1.05;;
50633;SDS011;36596;55.798;38.462;2022-08-14T10:59:56;2.67;;;1.40;;
50633;SDS011;36596;55.798;38.462;2022-08-14T11:02:32;3.55;;;1.40;;
50633;SDS011;36596;55.798;38.462;2022-08-14T11:07:28;3.28;;;1.23;;
50633;SDS011;36596;55.798;38.462;2022-08-14T11:09:59;4.82;;;1.35;;
50633;SDS011;36596;55.798;38.462;2022-08-14T11:12:27;4.05;;;1.48;;
50633;SDS011;36596;55.798;38.462;2022-08-14T11:15:04;4.05;;;1.42;;
50633;SDS011;36596;55.798;38.462;2022-08-14T11:17:32;3.22;;;1.67;;
50633;SDS011;36596;55.798;38.462;2022-08-14T11:20:01;4.78;;;1.30;;
50633;SDS011;36596;55.798;38.462;2022-08-14T11:22:30;5.10;;;1.67;;
50633;SDS011;36596;55.798;38.462;2022-08-14T11:25:04;5.47;;;1.75;;
50633;SDS011;36596;55.798;38.462;2022-08-14T11:27:31;3.22;;;1.38;;
50633;SDS011;36596;55.798;38.462;2022-08-14T11:29:59;4.87;;;1.40;;
50633;SDS011;36596;55.798;38.462;2022-08-14T11:32:28;2.03;;;1.50;;
50633;SDS011;36596;55.798;38.462;2022-08-14T11:34:58;2.63;;;1.70;;
50633;SDS011;36596;55.798;38.462;2022-08-14T11:37:30;2.10;;;1.40;;
50633;SDS011;36596;55.798;38.462;2022-08-14T11:39:59;4.07;;;1.45;;
50633;SDS011;36596;55.798;38.462;2022-08-14T11:42:26;4.97;;;1.67;;
50633;SDS011;36596;55.798;38.462;2022-08-14T11:44:57;4.45;;;1.70;;
50633;SDS011;36596;55.798;38.462;2022-08-14T11:47:32;4.03;;;1.88;;
50633;SDS011;36596;55.798;38.462;2022-08-14T11:49:58;2.10;;;1.48;;
50633;SDS011;36596;55.798;38.462;2022-08-14T11:52:33;3.47;;;1.55;;
50633;SDS011;36596;55.798;38.462;2022-08-14T11:55:02;2.75;;;1.48;;
50633;SDS011;36596;55.798;38.462;2022-08-14T11:57:33;2.17;;;1.33;;
50633;SDS011;36596;55.798;38.462;2022-08-14T12:00:15;2.63;;;1.50;;
50633;SDS011;36596;55.798;38.462;2022-08-14T12:02:48;3.20;;;1.40;;
50633;SDS011;36596;55.798;38.462;2022-08-14T12:05:29;4.25;;;1.50;;
50633;SDS011;36596;55.798;38.462;2022-08-14T12:07:57;3.08;;;1.50;;
50633;SDS011;36596;55.798;38.462;2022-08-14T12:12:51;2.72;;;1.63;;
50633;SDS011;36596;55.798;38.462;2022-08-14T12:15:28;3.00;;;1.77;;
50633;SDS011;36596;55.798;38.462;2022-08-14T12:17:55;2.95;;;1.83;;
50633;SDS011;36596;55.798;38.462;2022-08-14T12:20:32;5.57;;;1.80;;
50633;SDS011;36596;55.798;38.462;2022-08-14T12:23:05;3.85;;;1.75;;
50633;SDS011;36596;55.798;38.462;2022-08-14T12:25:35;3.90;;;1.77;;
50633;SDS011;36596;55.798;38.462;2022-08-14T12:28:03;3.45;;;1.73;;
50633;SDS011;36596;55.798;38.462;2022-08-14T12:30:37;3.45;;;2.25;;
50633;SDS011;36596;55.798;38.462;2022-08-14T12:35:53;6.05;;;1.83;;
50633;SDS011;36596;55.798;38.462;2022-08-14T12:38:34;5.00;;;1.70;;
50633;SDS011;36596;55.798;38.462;2022-08-14T12:41:03;5.50;;;2.17;;
50633;SDS011;36596;55.798;38.462;2022-08-14T12:43:43;4.63;;;2.17;;
50633;SDS011;36596;55.798;38.462;2022-08-14T12:48:59;3.33;;;1.90;;
50633;SDS011;36596;55.798;38.462;2022-08-14T12:51:28;3.28;;;2.17;;
50633;SDS011;36596;55.798;38.462;2022-08-14T12:53:55;3.63;;;2.17;;
50633;SDS011;36596;55.798;38.462;2022-08-14T12:56:22;5.80;;;2.95;;
50633;SDS011;36596;55.798;38.462;2022-08-14T12:58:53;6.38;;;3.15;;
50633;SDS011;36596;55.798;38.462;2022-08-14T13:01:22;4.72;;;2.40;;
50633;SDS011;36596;55.798;38.462;2022-08-14T13:03:50;6.07;;;2.63;;
50633;SDS011;36596;55.798;38.462;2022-08-14T13:06:17;6.03;;;2.90;;
50633;SDS011;36596;55.798;38.462;2022-08-14T13:08:44;7.00;;;3.20;;
50633;SDS011;36596;55.798;38.462;2022-08-14T13:11:13;4.07;;;2.20;;
50633;SDS011;36596;55.798;38.462;2022-08-14T13:13:43;10.95;;;4.28;;
50633;SDS011;36596;55.798;38.462;2022-08-14T13:16:11;3.63;;;2.20;;
50633;SDS011;36596;55.798;38.462;2022-08-14T13:18:41;3.13;;;2.83;;
50633;SDS011;36596;55.798;38.462;2022-08-14T13:21:12;4.15;;;3.17;;
50633;SDS011;36596;55.798;38.462;2022-08-14T13:23:40;5.40;;;3.83;;
50633;SDS011;36596;55.798;38.462;2022-08-14T13:26:09;4.25;;;3.08;;
50633;SDS011;36596;55.798;38.462;2022-08-14T13:28:38;3.03;;;2.80;;
50633;SDS011;36596;55.798;38.462;2022-08-14T13:31:07;2.95;;;2.65;;
50633;SDS011;36596;55.798;38.462;2022-08-14T13:33:34;3.28;;;2.20;;
50633;SDS011;36596;55.798;38.462;2022-08-14T13:36:02;6.28;;;3.00;;
50633;SDS011;36596;55.798;38.462;2022-08-14T13:38:29;3.53;;;2.28;;
50633;SDS011;36596;55.798;38.462;2022-08-14T13:40:58;3.10;;;2.67;;
50633;SDS011;36596;55.798;38.462;2022-08-14T13:43:24;5.35;;;2.38;;
50633;SDS011;36596;55.798;38.462;2022-08-14T13:45:51;6.10;;;2.53;;
50633;SDS011;36596;55.798;38.462;2022-08-14T13:48:22;4.07;;;2.00;;
50633;SDS011;36596;55.798;38.462;2022-08-14T13:50:51;2.70;;;2.08;;
50633;SDS011;36596;55.798;38.462;2022-08-14T13:53:21;5.38;;;2.13;;
50633;SDS011;36596;55.798;38.462;2022-08-14T13:55:48;2.75;;;2.22;;
50633;SDS011;36596;55.798;38.462;2022-08-14T13:58:16;6.93;;;2.40;;
50633;SDS011;36596;55.798;38.462;2022-08-14T14:00:44;6.15;;;2.70;;
50633;SDS011;36596;55.798;38.462;2022-08-14T14:03:11;2.97;;;2.20;;
50633;SDS011;36596;55.798;38.462;2022-08-14T14:05:38;2.90;;;2.60;;
50633;SDS011;36596;55.798;38.462;2022-08-14T14:08:07;5.85;;;2.45;;
50633;SDS011;36596;55.798;38.462;2022-08-14T14:10:36;3.83;;;3.03;;
50633;SDS011;36596;55.798;38.462;2022-08-14T14:13:03;6.05;;;2.75;;
50633;SDS011;36596;55.798;38.462;2022-08-14T14:15:29;6.10;;;2.42;;
50633;SDS011;36596;55.798;38.462;2022-08-14T14:17:55;3.47;;;2.22;;
50633;SDS011;36596;55.798;38.462;2022-08-14T14:20:24;6.43;;;2.97;;
50633;SDS011;36596;55.798;38.462;2022-08-14T14:22:50;3.72;;;2.28;;
50633;SDS011;36596;55.798;38.462;2022-08-14T14:25:17;3.85;;;2.55;;
50633;SDS011;36596;55.798;38.462;2022-08-14T14:27:45;2.95;;;2.50;;
50633;SDS011;36596;55.798;38.462;2022-08-14T14:30:16;4.10;;;2.63;;
50633;SDS011;36596;55.798;38.462;2022-08-14T14:32:43;4.22;;;2.58;;
50633;SDS011;36596;55.798;38.462;2022-08-14T14:35:12;5.25;;;2.55;;
50633;SDS011;36596;55.798;38.462;2022-08-14T14:37:42;4.13;;;2.55;;
50633;SDS011;36596;55.798;38.462;2022-08-14T14:40:10;4.25;;;2.33;;
50633;SDS011;36596;55.798;38.462;2022-08-14T14:42:47;2.38;;;2.13;;
50633;SDS011;36596;55.798;38.462;2022-08-14T14:45:15;4.95;;;2.50;;
50633;SDS011;36596;55.798;38.462;2022-08-14T14:47:52;5.07;;;2.38;;
50633;SDS011;36596;55.798;38.462;2022-08-14T14:50:19;3.05;;;2.30;;
50633;SDS011;36596;55.798;38.462;2022-08-14T14:52:48;5.40;;;2.53;;
50633;SDS011;36596;55.798;38.462;2022-08-14T14:55:15;3.95;;;2.50;;
50633;SDS011;36596;55.798;38.462;2022-08-14T14:57:42;2.63;;;2.00;;
50633;SDS011;36596;55.798;38.462;2022-08-14T15:00:13;5.05;;;2.45;;
50633;SDS011;36596;55.798;38.462;2022-08-14T15:02:44;3.92;;;2.83;;
50633;SDS011;36596;55.798;38.462;2022-08-14T15:05:15;5.13;;;3.08;;
50633;SDS011;36596;55.798;38.462;2022-08-14T15:07:43;6.32;;;3.45;;
50633;SDS011;36596;55.798;38.462;2022-08-14T15:10:11;5.05;;;3.55;;
50633;SDS011;36596;55.798;38.462;2022-08-14T15:12:39;4.82;;;2.38;;
50633;SDS011;36596;55.798;38.462;2022-08-14T15:15:06;6.07;;;3.00;;
50633;SDS011;36596;55.798;38.462;2022-08-14T15:17:32;4.47;;;2.78;;
50633;SDS011;36596;55.798;38.462;2022-08-14T15:20:05;4.18;;;2.83;;
50633;SDS011;36596;55.798;38.462;2022-08-14T15:22:35;3.05;;;2.40;;
50633;SDS011;36596;55.798;38.462;2022-08-14T15:25:04;5.13;;;3.03;;
50633;SDS011;36596;55.798;38.462;2022-08-14T15:27:34;5.55;;;2.65;;
50633;SDS011;36596;55.798;38.462;2022-08-14T15:30:01;5.80;;;3.28;;
50633;SDS011;36596;55.798;38.462;2022-08-14T15:32:29;5.00;;;2.78;;
50633;SDS011;36596;55.798;38.462;2022-08-14T15:34:56;6.40;;;3.00;;
50633;SDS011;36596;55.798;38.462;2022-08-14T15:37:22;4.93;;;2.95;;